sensor_id;sensor_type;location;lat;lon;timestamp;pressure;altitude;pressure_sealevel;temperature;humidity
16355;BME280;8287;51.644;8.494;2023-12-20T00:01:35;100097.53;;;10.07;100.00
16355;BME280;8287;51.644;8.494;2023-12-20T00:04:02;100086.69;;;9.95;100.00
16355;BME280;8287;51.644;8.494;2023-12-20T00:06:29;100082.59;;;9.81;100.00
16355;BME280;8287;51.644;8.494;2023-12-20T00:08:56;100102.00;;;9.68;100.00
16355;BME280;8287;51.644;8.494;2023-12-20T00:11:23;100110.41;;;9.48;100.00
16355;BME280;8287;51.644;8.494;2023-12-20T00:13:54;100093.78;;;9.48;100.00
16355;BME280;8287;51.644;8.494;2023-12-20T00:16:20;100088.59;;;9.43;100.00
16355;BME280;8287;51.644;8.494;2023-12-20T00:18:47;100091.06;;;9.39;100.00
16355;BME280;8287;51.644;8.494;2023-12-20T00:21:13;100091.94;;;9.26;100.00
16355;BME280;8287;51.644;8.494;2023-12-20T00:23:40;100100.91;;;9.25;100.00
16355;BME280;8287;51.644;8.494;2023-12-20T00:26:07;100105.25;;;9.21;100.00
16355;BME280;8287;51.644;8.494;2023-12-20T00:28:33;100098.53;;;9.15;100.00
16355;BME280;8287;51.644;8.494;2023-12-20T00:31:01;100111.03;;;9.23;100.00
16355;BME280;8287;51.644;8.494;2023-12-20T00:33:28;100111.63;;;9.20;100.00
16355;BME280;8287;51.644;8.494;2023-12-20T00:35:54;100106.63;;;9.19;100.00
16355;BME280;8287;51.644;8.494;2023-12-20T00:38:21;100102.31;;;9.23;100.00
16355;BME280;8287;51.644;8.494;2023-12-20T00:40:48;100099.97;;;9.21;100.00
16355;BME280;8287;51.644;8.494;2023-12-20T00:43:15;100102.78;;;9.25;100.00
16355;BME280;8287;51.644;8.494;2023-12-20T00:45:41;100102.63;;;9.21;100.00
16355;BME280;8287;51.644;8.494;2023-12-20T00:48:09;100105.16;;;9.26;100.00
16355;BME280;8287;51.644;8.494;2023-12-20T00:50:36;100102.13;;;9.19;100.00
16355;BME280;8287;51.644;8.494;2023-12-20T00:53:03;100112.00;;;9.27;100.00
16355;BME280;8287;51.644;8.494;2023-12-20T00:55:31;100113.66;;;9.23;100.00
16355;BME280;8287;51.644;8.494;2023-12-20T00:57:57;100117.38;;;9.22;100.00
16355;BME280;8287;51.644;8.494;2023-12-20T01:00:24;100120.13;;;9.17;100.00
16355;BME280;8287;51.644;8.494;2023-12-20T01:02:51;100125.28;;;9.14;100.00
16355;BME280;8287;51.644;8.494;2023-12-20T01:05:19;100125.09;;;9.10;100.00
16355;BME280;8287;51.644;8.494;2023-12-20T01:07:48;100130.38;;;9.10;100.00
16355;BME280;8287;51.644;8.494;2023-12-20T01:10:15;100125.75;;;9.16;100.00
16355;BME280;8287;51.644;8.494;2023-12-20T01:12:43;100116.25;;;9.15;100.00
16355;BME280;8287;51.644;8.494;2023-12-20T01:15:10;100131.09;;;9.24;100.00
16355;BME280;8287;51.644;8.494;2023-12-20T01:17:36;100126.41;;;9.21;100.00
16355;BME280;8287;51.644;8.494;2023-12-20T01:20:03;100127.50;;;9.20;100.00
16355;BME280;8287;51.644;8.494;2023-12-20T01:22:32;100125.03;;;9.24;100.00
16355;BME280;8287;51.644;8.494;2023-12-20T01:25:01;100122.84;;;9.26;100.00
16355;BME280;8287;51.644;8.494;2023-12-20T01:27:27;100127.69;;;9.24;100.00
16355;BME280;8287;51.644;8.494;2023-12-20T01:29:55;100123.03;;;9.29;100.00
16355;BME280;8287;51.644;8.494;2023-12-20T01:32:21;100128.34;;;9.29;100.00
16355;BME280;8287;51.644;8.494;2023-12-20T01:34:49;100127.84;;;9.27;100.00
16355;BME280;8287;51.644;8.494;2023-12-20T01:37:16;100128.63;;;9.28;100.00
16355;BME280;8287;51.644;8.494;2023-12-20T01:39:44;100128.34;;;9.29;100.00
16355;BME280;8287;51.644;8.494;2023-12-20T01:42:10;100121.00;;;9.26;100.00
16355;BME280;8287;51.644;8.494;2023-12-20T01:44:37;100133.47;;;9.34;100.00
16355;BME280;8287;51.644;8.494;2023-12-20T01:47:04;100140.84;;;9.37;100.00
16355;BME280;8287;51.644;8.494;2023-12-20T01:49:30;100143.47;;;9.37;100.00
16355;BME280;8287;51.644;8.494;2023-12-20T01:51:57;100149.66;;;9.33;100.00
16355;BME280;8287;51.644;8.494;2023-12-20T01:54:24;100153.88;;;9.34;100.00
16355;BME280;8287;51.644;8.494;2023-12-20T01:56:53;100152.13;;;9.29;100.00
16355;BME280;8287;51.644;8.494;2023-12-20T01:59:20;100150.09;;;9.26;100.00
16355;BME280;8287;51.644;8.494;2023-12-20T02:01:47;100140.75;;;9.29;100.00
16355;BME280;8287;51.644;8.494;2023-12-20T02:04:14;100154.78;;;9.29;100.00
16355;BME280;8287;51.644;8.494;2023-12-20T02:06:42;100152.41;;;9.28;100.00
16355;BME280;8287;51.644;8.494;2023-12-20T02:09:09;100154.59;;;9.26;100.00
16355;BME280;8287;51.644;8.494;2023-12-20T02:11:36;100149.09;;;9.22;100.00
16355;BME280;8287;51.644;8.494;2023-12-20T02:14:05;100153.91;;;9.20;100.00
16355;BME280;8287;51.644;8.494;2023-12-20T02:16:32;100157.50;;;9.24;100.00
16355;BME280;8287;51.644;8.494;2023-12-20T02:18:59;100150.09;;;9.26;100.00
16355;BME280;8287;51.644;8.494;2023-12-20T02:21:31;100149.09;;;9.22;100.00
16355;BME280;8287;51.644;8.494;2023-12-20T02:23:58;100132.88;;;9.15;100.00
16355;BME280;8287;51.644;8.494;2023-12-20T02:26:25;100141.59;;;9.16;100.00
16355;BME280;8287;51.644;8.494;2023-12-20T02:28:51;100143.44;;;9.15;100.00
16355;BME280;8287;51.644;8.494;2023-12-20T02:31:20;100143.06;;;9.08;100.00
16355;BME280;8287;51.644;8.494;2023-12-20T02:33:47;100145.53;;;9.05;100.00
16355;BME280;8287;51.644;8.494;2023-12-20T02:36:13;100132.91;;;9.02;100.00
16355;BME280;8287;51.644;8.494;2023-12-20T02:38:41;100136.66;;;9.01;100.00
16355;BME280;8287;51.644;8.494;2023-12-20T02:41:08;100136.16;;;8.99;100.00
16355;BME280;8287;51.644;8.494;2023-12-20T02:43:35;100135.50;;;8.93;100.00
16355;BME280;8287;51.644;8.494;2023-12-20T02:46:01;100135.97;;;8.95;100.00
16355;BME280;8287;51.644;8.494;2023-12-20T02:48:28;100132.97;;;8.88;100.00
16355;BME280;8287;51.644;8.494;2023-12-20T02:50:55;100136.41;;;8.75;100.00
16355;BME280;8287;51.644;8.494;2023-12-20T02:53:21;100142.00;;;8.74;100.00
16355;BME280;8287;51.644;8.494;2023-12-20T02:55:49;100140.44;;;8.73;100.00
16355;BME280;8287;51.644;8.494;2023-12-20T02:58:16;100145.41;;;8.74;100.00
16355;BME280;8287;51.644;8.494;2023-12-20T03:00:43;100139.72;;;8.67;100.00
16355;BME280;8287;51.644;8.494;2023-12-20T03:03:10;100134.97;;;8.69;100.00
16355;BME280;8287;51.644;8.494;2023-12-20T03:05:37;100123.88;;;8.67;100.00
16355;BME280;8287;51.644;8.494;2023-12-20T03:08:04;100135.53;;;8.66;100.00
16355;BME280;8287;51.644;8.494;2023-12-20T03:10:30;100135.53;;;8.66;100.00
16355;BME280;8287;51.644;8.494;2023-12-20T03:12:58;100142.69;;;8.66;100.00
16355;BME280;8287;51.644;8.494;2023-12-20T03:15:25;100143.56;;;8.61;100.00
16355;BME280;8287;51.644;8.494;2023-12-20T03:17:52;100150.00;;;8.69;100.00
16355;BME280;8287;51.644;8.494;2023-12-20T03:20:18;100147.09;;;8.70;100.00
16355;BME280;8287;51.644;8.494;2023-12-20T03:22:45;100145.53;;;8.69;100.00
16355;BME280;8287;51.644;8.494;2023-12-20T03:25:12;100148.16;;;8.69;100.00
16355;BME280;8287;51.644;8.494;2023-12-20T03:27:38;100140.03;;;8.66;100.00
16355;BME280;8287;51.644;8.494;2023-12-20T03:30:07;100132.41;;;8.64;100.00
16355;BME280;8287;51.644;8.494;2023-12-20T03:32:34;100131.03;;;8.67;100.00
16355;BME280;8287;51.644;8.494;2023-12-20T03:35:01;100124.19;;;8.66;100.00
16355;BME280;8287;51.644;8.494;2023-12-20T03:37:28;100113.84;;;8.69;100.00
16355;BME280;8287;51.644;8.494;2023-12-20T03:39:54;100126.16;;;8.74;100.00
16355;BME280;8287;51.644;8.494;2023-12-20T03:42:21;100124.97;;;8.66;100.00
16355;BME280;8287;51.644;8.494;2023-12-20T03:44:48;100129.69;;;8.69;100.00
16355;BME280;8287;51.644;8.494;2023-12-20T03:47:16;100132.19;;;8.74;100.00
16355;BME280;8287;51.644;8.494;2023-12-20T03:49:43;100128.00;;;8.73;100.00
16355;BME280;8287;51.644;8.494;2023-12-20T03:52:09;100134.44;;;8.67;100.00
16355;BME280;8287;51.644;8.494;2023-12-20T03:54:36;100126.44;;;8.72;100.00
16355;BME280;8287;51.644;8.494;2023-12-20T03:57:03;100125.47;;;8.68;100.00
16355;BME280;8287;51.644;8.494;2023-12-20T03:59:30;100126.38;;;8.64;100.00
16355;BME280;8287;51.644;8.494;2023-12-20T04:02:00;100130.19;;;8.58;100.00
16355;BME280;8287;51.644;8.494;2023-12-20T04:04:29;100127.53;;;8.58;100.00
16355;BME280;8287;51.644;8.494;2023-12-20T04:06:55;100127.72;;;8.61;100.00
16355;BME280;8287;51.644;8.494;2023-12-20T04:09:22;100127.34;;;8.54;100.00
16355;BME280;8287;51.644;8.494;2023-12-20T04:11:49;100131.84;;;8.40;100.00
16355;BME280;8287;51.644;8.494;2023-12-20T04:14:15;100123.22;;;8.48;100.00
16355;BME280;8287;51.644;8.494;2023-12-20T04:16:42;100132.13;;;8.52;100.00
16355;BME280;8287;51.644;8.494;2023-12-20T04:19:08;100127.25;;;8.59;100.00
16355;BME280;8287;51.644;8.494;2023-12-20T04:21:37;100134.19;;;8.55;100.00
16355;BME280;8287;51.644;8.494;2023-12-20T04:24:04;100120.97;;;8.55;100.00
16355;BME280;8287;51.644;8.494;2023-12-20T04:26:30;100125.38;;;8.60;100.00
16355;BME280;8287;51.644;8.494;2023-12-20T04:28:57;100130.66;;;8.60;100.00
16355;BME280;8287;51.644;8.494;2023-12-20T04:31:24;100123.63;;;8.55;100.00
16355;BME280;8287;51.644;8.494;2023-12-20T04:33:51;100127.81;;;8.56;100.00
16355;BME280;8287;51.644;8.494;2023-12-20T04:36:17;100123.63;;;8.55;100.00
16355;BME280;8287;51.644;8.494;2023-12-20T04:38:45;100123.63;;;8.55;100.00
16355;BME280;8287;51.644;8.494;2023-12-20T04:41:12;100124.97;;;8.53;100.00
16355;BME280;8287;51.644;8.494;2023-12-20T04:43:41;100123.72;;;8.50;100.00
16355;BME280;8287;51.644;8.494;2023-12-20T04:46:07;100115.91;;;8.45;100.00
16355;BME280;8287;51.644;8.494;2023-12-20T04:48:34;100122.06;;;8.41;100.00
16355;BME280;8287;51.644;8.494;2023-12-20T04:51:01;100106.03;;;8.37;100.00
16355;BME280;8287;51.644;8.494;2023-12-20T04:53:27;100105.44;;;8.27;100.00
16355;BME280;8287;51.644;8.494;2023-12-20T04:55:55;100104.09;;;8.29;100.00
16355;BME280;8287;51.644;8.494;2023-12-20T04:58:22;100102.31;;;8.38;100.00
16355;BME280;8287;51.644;8.494;2023-12-20T05:00:49;100101.44;;;8.29;100.00
16355;BME280;8287;51.644;8.494;2023-12-20T05:03:16;100101.34;;;8.34;100.00
16355;BME280;8287;51.644;8.494;2023-12-20T05:05:42;100097.53;;;8.27;100.00
16355;BME280;8287;51.644;8.494;2023-12-20T05:08:09;100092.44;;;8.30;100.00
16355;BME280;8287;51.644;8.494;2023-12-20T05:10:35;100104.47;;;8.36;100.00
16355;BME280;8287;51.644;8.494;2023-12-20T05:13:04;100105.38;;;8.32;100.00
16355;BME280;8287;51.644;8.494;2023-12-20T05:15:31;100101.34;;;8.34;100.00
16355;BME280;8287;51.644;8.494;2023-12-20T05:17:57;100109.28;;;8.34;100.00
16355;BME280;8287;51.644;8.494;2023-12-20T05:20:24;100109.56;;;8.33;100.00
16355;BME280;8287;51.644;8.494;2023-12-20T05:22:51;100125.19;;;8.29;100.00
16355;BME280;8287;51.644;8.494;2023-12-20T05:25:17;100128.81;;;8.33;100.00
16355;BME280;8287;51.644;8.494;2023-12-20T05:27:44;100132.31;;;8.29;100.00
16355;BME280;8287;51.644;8.494;2023-12-20T05:30:13;100122.38;;;8.26;100.00
16355;BME280;8287;51.644;8.494;2023-12-20T05:32:40;100135.47;;;8.31;100.00
16355;BME280;8287;51.644;8.494;2023-12-20T05:35:07;100129.50;;;8.25;100.00
16355;BME280;8287;51.644;8.494;2023-12-20T05:37:33;100114.03;;;8.32;100.00
16355;BME280;8287;51.644;8.494;2023-12-20T05:40:00;100113.66;;;8.39;100.00
16355;BME280;8287;51.644;8.494;2023-12-20T05:42:26;100114.56;;;8.34;100.00
16355;BME280;8287;51.644;8.494;2023-12-20T05:44:53;100115.91;;;8.45;100.00
16355;BME280;8287;51.644;8.494;2023-12-20T05:47:21;100113.47;;;8.35;100.00
16355;BME280;8287;51.644;8.494;2023-12-20T05:49:48;100120.41;;;8.31;100.00
16355;BME280;8287;51.644;8.494;2023-12-20T05:52:15;100119.53;;;8.36;100.00
16355;BME280;8287;51.644;8.494;2023-12-20T05:54:42;100114.38;;;8.31;100.00
16355;BME280;8287;51.644;8.494;2023-12-20T05:57:08;100123.91;;;8.40;100.00
16355;BME280;8287;51.644;8.494;2023-12-20T05:59:35;100116.41;;;8.34;100.00
16355;BME280;8287;51.644;8.494;2023-12-20T06:02:03;100121.41;;;8.35;100.00
16355;BME280;8287;51.644;8.494;2023-12-20T06:04:31;100118.25;;;8.33;100.00
16355;BME280;8287;51.644;8.494;2023-12-20T06:06:58;100108.19;;;8.35;100.00
16355;BME280;8287;51.644;8.494;2023-12-20T06:09:26;100123.03;;;8.31;100.00
16355;BME280;8287;51.644;8.494;2023-12-20T06:11:53;100118.94;;;8.25;100.00
16355;BME280;8287;51.644;8.494;2023-12-20T06:14:20;100122.28;;;8.31;100.00
16355;BME280;8287;51.644;8.494;2023-12-20T06:16:46;100117.88;;;8.26;100.00
16355;BME280;8287;51.644;8.494;2023-12-20T06:19:13;100122.53;;;8.16;100.00
16355;BME280;8287;51.644;8.494;2023-12-20T06:21:41;100116.47;;;8.15;100.00
16355;BME280;8287;51.644;8.494;2023-12-20T06:24:08;100109.13;;;8.12;100.00
16355;BME280;8287;51.644;8.494;2023-12-20T06:26:35;100108.94;;;8.09;100.00
16355;BME280;8287;51.644;8.494;2023-12-20T06:29:01;100107.25;;;8.13;100.00
16355;BME280;8287;51.644;8.494;2023-12-20T06:31:28;100104.81;;;8.16;100.00
16355;BME280;8287;51.644;8.494;2023-12-20T06:33:54;100103.50;;;8.19;100.00
16355;BME280;8287;51.644;8.494;2023-12-20T06:36:23;100119.03;;;8.20;100.00
16355;BME280;8287;51.644;8.494;2023-12-20T06:38:50;100116.41;;;8.20;100.00
16355;BME280;8287;51.644;8.494;2023-12-20T06:41:16;100102.94;;;8.22;100.00
16355;BME280;8287;51.644;8.494;2023-12-20T06:43:45;100106.25;;;8.27;100.00
16355;BME280;8287;51.644;8.494;2023-12-20T06:46:15;100112.50;;;8.31;100.00
16355;BME280;8287;51.644;8.494;2023-12-20T06:48:42;100115.59;;;8.33;100.00
16355;BME280;8287;51.644;8.494;2023-12-20T06:51:11;100123.84;;;8.32;100.00
16355;BME280;8287;51.644;8.494;2023-12-20T06:53:38;100104.88;;;8.30;100.00
16355;BME280;8287;51.644;8.494;2023-12-20T06:56:10;100109.09;;;8.31;100.00
16355;BME280;8287;51.644;8.494;2023-12-20T06:58:37;100105.44;;;8.27;100.00
16355;BME280;8287;51.644;8.494;2023-12-20T07:01:04;100109.56;;;8.33;100.00
16355;BME280;8287;51.644;8.494;2023-12-20T07:03:30;100120.31;;;8.36;100.00
16355;BME280;8287;51.644;8.494;2023-12-20T07:05:57;100122.28;;;8.31;100.00
16355;BME280;8287;51.644;8.494;2023-12-20T07:08:24;100113.16;;;8.23;100.00
16355;BME280;8287;51.644;8.494;2023-12-20T07:10:51;100124.03;;;8.22;100.00
16355;BME280;8287;51.644;8.494;2023-12-20T07:13:22;100130.69;;;8.19;100.00
16355;BME280;8287;51.644;8.494;2023-12-20T07:15:48;100128.44;;;8.26;100.00
16355;BME280;8287;51.644;8.494;2023-12-20T07:18:15;100130.19;;;8.31;100.00
16355;BME280;8287;51.644;8.494;2023-12-20T07:20:42;100121.69;;;8.34;100.00
16355;BME280;8287;51.644;8.494;2023-12-20T07:23:11;100117.19;;;8.34;100.00
16355;BME280;8287;51.644;8.494;2023-12-20T07:25:37;100130.09;;;8.36;100.00
16355;BME280;8287;51.644;8.494;2023-12-20T07:28:05;100134.69;;;8.30;100.00
16355;BME280;8287;51.644;8.494;2023-12-20T07:30:33;100141.44;;;8.36;100.00
16355;BME280;8287;51.644;8.494;2023-12-20T07:32:59;100134.47;;;8.40;100.00
16355;BME280;8287;51.644;8.494;2023-12-20T07:35:27;100137.72;;;8.37;100.00
16355;BME280;8287;51.644;8.494;2023-12-20T07:37:54;100139.56;;;8.37;100.00
16355;BME280;8287;51.644;8.494;2023-12-20T07:40:21;100137.72;;;8.37;100.00
16355;BME280;8287;51.644;8.494;2023-12-20T07:42:49;100137.31;;;8.44;100.00
16355;BME280;8287;51.644;8.494;2023-12-20T07:45:15;100134.97;;;8.42;100.00
16355;BME280;8287;51.644;8.494;2023-12-20T07:47:43;100140.34;;;8.37;100.00
16355;BME280;8287;51.644;8.494;2023-12-20T07:50:10;100138.69;;;8.41;100.00
16355;BME280;8287;51.644;8.494;2023-12-20T07:52:37;100136.72;;;8.33;100.00
16355;BME280;8287;51.644;8.494;2023-12-20T07:55:04;100143.19;;;8.41;100.00
16355;BME280;8287;51.644;8.494;2023-12-20T07:57:31;100135.75;;;8.43;100.00
16355;BME280;8287;51.644;8.494;2023-12-20T07:59:57;100137.31;;;8.44;100.00
16355;BME280;8287;51.644;8.494;2023-12-20T08:02:24;100140.63;;;8.49;100.00
16355;BME280;8287;51.644;8.494;2023-12-20T08:04:52;100122.66;;;8.51;100.00
16355;BME280;8287;51.644;8.494;2023-12-20T08:07:19;100126.66;;;8.49;100.00
16355;BME280;8287;51.644;8.494;2023-12-20T08:09:46;100142.19;;;8.50;100.00
16355;BME280;8287;51.644;8.494;2023-12-20T08:12:12;100133.50;;;8.50;100.00
16355;BME280;8287;51.644;8.494;2023-12-20T08:14:40;100135.94;;;8.46;100.00
16355;BME280;8287;51.644;8.494;2023-12-20T08:17:06;100129.09;;;8.45;100.00
16355;BME280;8287;51.644;8.494;2023-12-20T08:19:33;100128.91;;;8.42;100.00
16355;BME280;8287;51.644;8.494;2023-12-20T08:22:01;100129.69;;;8.42;100.00
16355;BME280;8287;51.644;8.494;2023-12-20T08:24:29;100129.13;;;8.32;100.00
16355;BME280;8287;51.644;8.494;2023-12-20T08:26:56;100132.72;;;8.36;100.00
16355;BME280;8287;51.644;8.494;2023-12-20T08:29:22;100130.88;;;8.36;100.00
16355;BME280;8287;51.644;8.494;2023-12-20T08:31:52;100119.84;;;8.34;100.00
16355;BME280;8287;51.644;8.494;2023-12-20T08:34:18;100136.72;;;8.33;100.00
16355;BME280;8287;51.644;8.494;2023-12-20T08:36:45;100129.81;;;8.37;100.00
16355;BME280;8287;51.644;8.494;2023-12-20T08:39:13;100123.34;;;8.43;100.00
16355;BME280;8287;51.644;8.494;2023-12-20T08:41:40;100118.56;;;8.45;100.00
16355;BME280;8287;51.644;8.494;2023-12-20T08:44:06;100109.56;;;8.46;100.00
16355;BME280;8287;51.644;8.494;2023-12-20T08:46:33;100108.75;;;8.46;100.00
16355;BME280;8287;51.644;8.494;2023-12-20T08:49:00;100101.13;;;8.58;100.00
16355;BME280;8287;51.644;8.494;2023-12-20T08:51:27;100099.56;;;8.57;100.00
16355;BME280;8287;51.644;8.494;2023-12-20T08:53:54;100098.50;;;8.58;99.41
16355;BME280;8287;51.644;8.494;2023-12-20T08:56:22;100095.19;;;8.52;99.14
16355;BME280;8287;51.644;8.494;2023-12-20T08:58:49;100095.66;;;8.54;99.40
16355;BME280;8287;51.644;8.494;2023-12-20T09:01:15;100102.69;;;8.59;99.23
16355;BME280;8287;51.644;8.494;2023-12-20T09:03:42;100100.94;;;8.54;99.02
16355;BME280;8287;51.644;8.494;2023-12-20T09:06:09;100095.19;;;8.52;99.22
16355;BME280;8287;51.644;8.494;2023-12-20T09:08:36;100088.34;;;8.51;99.12
16355;BME280;8287;51.644;8.494;2023-12-20T09:11:03;100084.00;;;8.55;99.07
16355;BME280;8287;51.644;8.494;2023-12-20T09:13:31;100098.19;;;8.59;99.02
16355;BME280;8287;51.644;8.494;2023-12-20T09:15:58;100098.38;;;8.63;99.01
16355;BME280;8287;51.644;8.494;2023-12-20T09:18:24;100094.06;;;8.67;99.16
16355;BME280;8287;51.644;8.494;2023-12-20T09:20:51;100099.53;;;8.70;99.16
16355;BME280;8287;51.644;8.494;2023-12-20T09:23:18;100100.03;;;8.72;99.05
16355;BME280;8287;51.644;8.494;2023-12-20T09:25:44;100090.28;;;8.59;98.70
16355;BME280;8287;51.644;8.494;2023-12-20T09:28:11;100096.75;;;8.53;99.35
16355;BME280;8287;51.644;8.494;2023-12-20T09:30:41;100082.44;;;8.54;99.54
16355;BME280;8287;51.644;8.494;2023-12-20T09:33:10;100072.56;;;8.60;99.51
16355;BME280;8287;51.644;8.494;2023-12-20T09:35:36;100079.22;;;8.57;99.92
16355;BME280;8287;51.644;8.494;2023-12-20T09:38:03;100084.69;;;8.61;100.00
16355;BME280;8287;51.644;8.494;2023-12-20T09:40:32;100075.00;;;8.56;100.00
16355;BME280;8287;51.644;8.494;2023-12-20T09:43:03;100078.94;;;8.59;100.00
16355;BME280;8287;51.644;8.494;2023-12-20T09:45:31;100062.47;;;8.62;100.00
16355;BME280;8287;51.644;8.494;2023-12-20T09:47:59;100065.91;;;8.62;100.00
16355;BME280;8287;51.644;8.494;2023-12-20T09:50:27;100052.91;;;8.66;100.00
16355;BME280;8287;51.644;8.494;2023-12-20T09:52:57;100034.22;;;8.62;100.00
16355;BME280;8287;51.644;8.494;2023-12-20T09:55:25;100046.25;;;8.68;100.00
16355;BME280;8287;51.644;8.494;2023-12-20T09:57:52;100049.94;;;8.67;100.00
16355;BME280;8287;51.644;8.494;2023-12-20T10:00:19;100047.00;;;8.69;100.00
16355;BME280;8287;51.644;8.494;2023-12-20T10:02:50;100046.81;;;8.65;100.00
16355;BME280;8287;51.644;8.494;2023-12-20T10:05:25;100043.28;;;8.70;100.00
16355;BME280;8287;51.644;8.494;2023-12-20T10:07:52;100039.28;;;8.72;100.00
16355;BME280;8287;51.644;8.494;2023-12-20T10:10:19;100036.91;;;8.71;100.00
16355;BME280;8287;51.644;8.494;2023-12-20T10:13:01;100036.44;;;8.69;100.00
16355;BME280;8287;51.644;8.494;2023-12-20T10:15:28;100036.72;;;8.67;100.00
16355;BME280;8287;51.644;8.494;2023-12-20T10:17:55;100035.97;;;8.67;100.00
16355;BME280;8287;51.644;8.494;2023-12-20T10:20:23;100036.56;;;8.64;100.00
16355;BME280;8287;51.644;8.494;2023-12-20T10:22:50;100034.41;;;8.66;100.00
16355;BME280;8287;51.644;8.494;2023-12-20T10:25:19;100027.25;;;8.66;100.00
16355;BME280;8287;51.644;8.494;2023-12-20T10:27:45;100029.50;;;8.73;100.00
16355;BME280;8287;51.644;8.494;2023-12-20T10:30:13;100026.88;;;8.73;100.00
16355;BME280;8287;51.644;8.494;2023-12-20T10:32:39;100018.63;;;8.74;100.00
16355;BME280;8287;51.644;8.494;2023-12-20T10:35:08;100019.41;;;8.75;100.00
16355;BME280;8287;51.644;8.494;2023-12-20T10:37:36;100015.41;;;8.77;100.00
16355;BME280;8287;51.644;8.494;2023-12-20T10:40:04;99995.81;;;8.78;100.00
16355;BME280;8287;51.644;8.494;2023-12-20T10:42:32;100013.53;;;8.78;100.00
16355;BME280;8287;51.644;8.494;2023-12-20T10:44:59;100020.34;;;8.79;100.00
16355;BME280;8287;51.644;8.494;2023-12-20T10:47:26;100017.72;;;8.79;100.00
16355;BME280;8287;51.644;8.494;2023-12-20T10:49:54;100012.63;;;8.82;100.00
16355;BME280;8287;51.644;8.494;2023-12-20T10:52:23;100004.84;;;8.77;100.00
16355;BME280;8287;51.644;8.494;2023-12-20T10:54:51;100005.78;;;8.81;100.00
16355;BME280;8287;51.644;8.494;2023-12-20T10:57:18;100005.66;;;8.86;100.00
16355;BME280;8287;51.644;8.494;2023-12-20T10:59:45;100010.34;;;8.89;100.00
16355;BME280;8287;51.644;8.494;2023-12-20T11:02:13;99995.59;;;8.88;100.00
16355;BME280;8287;51.644;8.494;2023-12-20T11:04:46;100001.81;;;8.92;100.00
16355;BME280;8287;51.644;8.494;2023-12-20T11:07:19;100012.09;;;8.94;100.00
16355;BME280;8287;51.644;8.494;2023-12-20T11:09:57;100001.47;;;8.85;100.00
16355;BME280;8287;51.644;8.494;2023-12-20T11:12:35;99994.25;;;8.77;100.00
16355;BME280;8287;51.644;8.494;2023-12-20T11:15:06;100003.63;;;8.83;100.00
16355;BME280;8287;51.644;8.494;2023-12-20T11:17:33;99994.31;;;8.86;100.00
16355;BME280;8287;51.644;8.494;2023-12-20T11:20:07;100015.16;;;8.87;100.00
16355;BME280;8287;51.644;8.494;2023-12-20T11:22:36;100001.41;;;8.99;100.00
16355;BME280;8287;51.644;8.494;2023-12-20T11:25:07;100000.06;;;8.88;100.00
16355;BME280;8287;51.644;8.494;2023-12-20T11:27:35;99999.06;;;8.97;100.00
16355;BME280;8287;51.644;8.494;2023-12-20T11:30:03;100000.25;;;8.91;100.00
16355;BME280;8287;51.644;8.494;2023-12-20T11:32:33;100006.81;;;8.94;100.00
16355;BME280;8287;51.644;8.494;2023-12-20T11:35:01;100002.31;;;8.94;100.00
16355;BME280;8287;51.644;8.494;2023-12-20T11:37:42;99999.84;;;8.98;100.00
16355;BME280;8287;51.644;8.494;2023-12-20T11:40:14;100008.06;;;8.96;100.00
16355;BME280;8287;51.644;8.494;2023-12-20T11:42:42;99989.69;;;8.91;100.00
16355;BME280;8287;51.644;8.494;2023-12-20T11:45:10;99983.81;;;8.94;100.00
16355;BME280;8287;51.644;8.494;2023-12-20T11:47:37;99992.81;;;8.93;100.00
16355;BME280;8287;51.644;8.494;2023-12-20T11:50:05;99989.81;;;8.86;100.00
16355;BME280;8287;51.644;8.494;2023-12-20T11:52:33;99975.53;;;8.87;100.00
16355;BME280;8287;51.644;8.494;2023-12-20T11:54:59;99972.72;;;8.84;100.00
16355;BME280;8287;51.644;8.494;2023-12-20T11:57:27;99969.59;;;8.82;100.00
16355;BME280;8287;51.644;8.494;2023-12-20T11:59:54;99964.16;;;8.87;100.00
16355;BME280;8287;51.644;8.494;2023-12-20T12:02:21;99960.16;;;8.89;100.00
16355;BME280;8287;51.644;8.494;2023-12-20T12:04:49;99960.75;;;8.86;100.00
16355;BME280;8287;51.644;8.494;2023-12-20T12:07:16;99960.44;;;8.88;100.00
16355;BME280;8287;51.644;8.494;2023-12-20T12:09:43;99959.03;;;8.82;100.00
16355;BME280;8287;51.644;8.494;2023-12-20T12:12:10;99960.16;;;8.89;100.00
16355;BME280;8287;51.644;8.494;2023-12-20T12:14:39;99955.66;;;8.90;100.00
16355;BME280;8287;51.644;8.494;2023-12-20T12:17:10;99941.94;;;8.88;100.00
16355;BME280;8287;51.644;8.494;2023-12-20T12:19:36;99937.75;;;8.87;100.00
16355;BME280;8287;51.644;8.494;2023-12-20T12:22:07;99935.09;;;8.87;100.00
16355;BME280;8287;51.644;8.494;2023-12-20T12:24:38;99926.59;;;8.90;100.00
16355;BME280;8287;51.644;8.494;2023-12-20T12:27:06;99932.19;;;8.88;100.00
16355;BME280;8287;51.644;8.494;2023-12-20T12:29:33;99932.09;;;8.80;100.00
16355;BME280;8287;51.644;8.494;2023-12-20T12:32:04;99924.13;;;8.93;100.00
16355;BME280;8287;51.644;8.494;2023-12-20T12:34:31;99927.50;;;8.85;100.00
16355;BME280;8287;51.644;8.494;2023-12-20T12:36:59;99918.50;;;8.86;100.00
16355;BME280;8287;51.644;8.494;2023-12-20T12:39:26;99911.41;;;8.95;100.00
16355;BME280;8287;51.644;8.494;2023-12-20T12:41:55;99916.97;;;8.94;100.00
16355;BME280;8287;51.644;8.494;2023-12-20T12:44:22;99899.13;;;8.99;100.00
16355;BME280;8287;51.644;8.494;2023-12-20T12:46:50;99896.84;;;9.06;100.00
16355;BME280;8287;51.644;8.494;2023-12-20T12:49:20;99904.84;;;9.23;100.00
16355;BME280;8287;51.644;8.494;2023-12-20T12:51:47;99894.72;;;9.17;100.00
16355;BME280;8287;51.644;8.494;2023-12-20T12:54:14;99888.78;;;9.11;100.00
16355;BME280;8287;51.644;8.494;2023-12-20T12:56:43;99900.63;;;9.14;100.00
16355;BME280;8287;51.644;8.494;2023-12-20T12:59:15;99895.34;;;9.22;100.00
16355;BME280;8287;51.644;8.494;2023-12-20T13:01:45;99904.72;;;9.28;100.00
16355;BME280;8287;51.644;8.494;2023-12-20T13:04:11;99894.72;;;9.25;100.00